Central Wisconsin Airport

Airport
ICAO code: 
KCWA
Summary
ICAO Region: 
NAM
Territory: 
Location: 
Mosinee, Wisconsin,
Elevation: 
1277 ft
Coordinates: 
Aerial View: 
44° 47' 2.581" N, 89° 40' 20.823" W
Metar
Observation
KCWA 021547Z 29011G17KT 10SM OVC036 04/M02 A2976
Station
Mosinee / Central Wisconsin
Date/Time
2021-12-02 15:47:00
Wind direction
290°
Wind speed
11 kts
Lowest cloud amount
overcast
Temperature
4°C
Dew point
-2°C
Humidity
64%
Weather condition
n/a

Description

Central Wisconsin Airport, referred to as "C-Way", is a public airport located 8 km southeast of the central business district of Mosinee, in Marathon County, Wisconsin.

Climatology

Humid continental climate (Köppen climate classification Dfa) - characterized by four seasons: cold, windy, snowy winters, mild springs, hot, humid summers, and crisp and relatively short autumns. Precipitation reaches its lowest in January and February and peaks in summer and latter half of spring.

Runways

Designator Length Width Surface Rops
17/35 1982 46 CON Yes/Yes
8/26 2330 46 CON Yes/Yes
Airport map: 
Aerial View: 

SKYbrary Partners:

Safety knowledge contributed by: